Aviation Digital Data Service (ADDS)

Output produced by METARs form (1804 UTC 19 October 2017)
found at http://www.aviationweather.gov/adds/metars/
 
FKKD 191600Z VRB05KT 9999 TS SCT016 SCT020CB 30/25 Q1011 BECMG BKN013 SCT016CB
TAF FKKD 191700Z 1918/2024 VRB05KT 8000 TS BKN013 FEW016CB 
     TEMPO 1918/1924 3000 -TSRA 
     PROB30 2004/2007 3000 BR 
     BECMG 2006/2008 NSW BNK016 FEW020CB
       
FKKR 191700Z 28004KT CAVOK 32/21 Q1010 NOSIG
FKKN 191600Z 36004KT CAVOK 27/19 Q1016
FKYS 191700Z 26003KT 8000 SCT016 26/22 Q1014 NOSIG
TAF FKYS 191700Z 1918/2018 24005KT 9999 FEW003 BKN006 
     PROB30 2002/2006 4000 BR 
     BECMG 2008/2010 BKN016